• Join FlightAware (Why Join?)
  • Login
  • US Flag 
06:11AM EDT


 

Airport Tracker/Info


-or-


 

Live Flight TrackerFlight Track Log ✈ N403DM ✈ 15-Dec-2013 ✈ KSWI - KUMP

Flight Track Log - Related Links

Times and Time Zones

All times are in EST time to prevent confusion due to time zone crossing. See the N403DM flight status page for this flight to view local times or setup timezone preferences in your user account.

Time Position Orientation Groundspeed Altitude Reporting Facility
EST Latitude Longitude Course Direction KTS MPH feet Rate Location/Type
03:23PM 33.6483 -96.5014 50° Northeast 137 158 3,000  Level Fort Worth Center
03:25PM 33.6744 -96.4650 49° Northeast 144 166 3,900 840 Climbing Fort Worth Center
03:26PM 33.7008 -96.4253 51° Northeast 143 165 4,800 840 Climbing Fort Worth Center
03:27PM 33.7283 -96.3875 49° Northeast 149 171 5,700 840 Climbing Fort Worth Center
03:28PM 33.7561 -96.3450 52° Northeast 150 173 6,600 660 Climbing Fort Worth Center
03:29PM 33.7711 -96.3741 50° Northeast  Level Estimated
03:29PM 33.7842 -96.3075 48° Northeast 154 177 7,100  Level Fort Worth Center
03:30PM 33.8178 -96.2569 51° Northeast 177 204 7,100  Level Fort Worth Center
03:31PM 33.8486 -96.2119 50° Northeast 177 204 7,100  Level Fort Worth Center
03:32PM 33.8800 -96.1683 49° Northeast 174 200 7,100  Level Fort Worth Center
03:33PM 33.9114 -96.1222 51° Northeast 176 203 7,100  Level Fort Worth Center
03:34PM 33.9408 -96.0778 51° Northeast 173 199 7,100  Level Fort Worth Center
03:35PM 33.9728 -96.0331 49° Northeast 174 200 7,100  Level Fort Worth Center
03:36PM 34.0100 -95.9800 50° Northeast 174 200 7,100  Level Fort Worth Center
03:37PM 34.0408 -95.9333 51° Northeast 177 204 7,100  Level Fort Worth Center
03:38PM 34.0725 -95.8883 50° Northeast 177 204 7,100  Level Fort Worth Center
03:39PM 34.1044 -95.8417 50° Northeast 173 199 7,100  Level Fort Worth Center
03:40PM 34.1347 -95.7969 51° Northeast 173 199 7,100  Level Fort Worth Center
03:41PM 34.1650 -95.7531 50° Northeast 170 196 7,100  Level Fort Worth Center
03:42PM 34.1942 -95.7106 50° Northeast 167 192 7,100  Level Fort Worth Center
03:43PM 34.2231 -95.6664 52° Northeast 167 192 7,100  Level Fort Worth Center
03:44PM 34.2603 -95.6133 50° Northeast 171 197 7,100  Level Fort Worth Center
03:45PM 34.2875 -95.5728 51° Northeast 172 198 7,100  Level Fort Worth Center
03:46PM 34.3267 -95.5175 49° Northeast 177 204 7,100  Level Fort Worth Center
03:47PM 34.3569 -95.4739 50° Northeast 175 201 7,100  Level Fort Worth Center
03:48PM 34.3869 -95.4300 50° Northeast 173 199 7,100  Level Fort Worth Center
03:49PM 34.4169 -95.3842 52° Northeast 172 198 7,100  Level Fort Worth Center
03:50PM 34.4475 -95.3381 51° Northeast 173 199 7,100  Level Fort Worth Center
03:51PM 34.4789 -95.2919 50° Northeast 174 200 7,100  Level Fort Worth Center
03:52PM 34.5164 -95.2364 51° Northeast 176 203 7,100  Level Fort Worth Center
03:53PM 34.5475 -95.1903 51° Northeast 177 204 7,100  Level Fort Worth Center
03:55PM 34.5794 -95.1428 51° Northeast 179 206 7,100  Level Fort Worth Center
03:56PM 34.6131 -95.0931 51° Northeast 176 203 7,100  Level Fort Worth Center
03:57PM 34.6453 -95.0431 52° Northeast 179 206 7,100  Level Fort Worth Center
03:58PM 34.6783 -94.9950 50° Northeast 178 205 7,100  Level Fort Worth Center
03:59PM 34.7083 -94.9508 50° Northeast 176 203 7,100  Level Fort Worth Center
04:00PM 34.7400 -94.9025 51° Northeast 174 200 7,100  Level Fort Worth Center
04:01PM 34.7722 -94.8544 51° Northeast 174 200 7,100 -60 Level Fort Worth Center
04:02PM 34.8042 -94.8053 52° Northeast 176 203 7,000 -60 Descending Fort Worth Center
04:03PM 34.8372 -94.7567 50° Northeast 178 205 7,000  Level Fort Worth Center
04:04PM 34.8689 -94.7086 51° Northeast 175 201 7,000  Level Fort Worth Center
04:05PM 34.8989 -94.6633 51° Northeast 178 205 7,000  Level Fort Worth Center
04:06PM 34.9311 -94.6144 51° Northeast 177 204 7,000  Level Fort Worth Center
04:07PM 34.9636 -94.5656 51° Northeast 178 205 7,000  Level Fort Worth Center
04:08PM 34.9956 -94.5172 51° Northeast 176 203 7,000  Level Fort Worth Center
04:09PM 35.0281 -94.4681 51° Northeast 176 203 7,000  Level Fort Worth Center
04:10PM 35.0592 -94.4200 52° Northeast 173 199 7,000  Level Fort Worth Center
04:11PM 35.0881 -94.3744 52° Northeast 177 204 7,000  Level Memphis Center
04:12PM 35.1192 -94.3275 51° Northeast 178 205 7,000  Level Memphis Center
04:13PM 35.1511 -94.2800 51° Northeast 180 207 7,000  Level Memphis Center
04:14PM 35.1811 -94.2322 52° Northeast 179 206 7,000  Level Memphis Center
04:15PM 35.2119 -94.1847 52° Northeast 177 204 7,000  Level Memphis Center
04:16PM 35.2444 -94.1381 50° Northeast 178 205 7,000  Level Memphis Center
04:17PM 35.2797 -94.0817 53° Northeast 176 203 7,000  Level Memphis Center
04:18PM 35.3119 -94.0331 51° Northeast 180 207 7,000  Level Memphis Center
04:19PM 35.3425 -93.9858 52° Northeast 178 205 7,000  Level Memphis Center
04:20PM 35.3731 -93.9400 51° Northeast 175 201 7,000  Level Memphis Center
04:21PM 35.4033 -93.8919 52° Northeast 176 203 7,000  Level Memphis Center
04:22PM 35.4353 -93.8433 51° Northeast 180 207 7,000  Level Memphis Center
04:23PM 35.4717 -93.7864 52° Northeast 179 206 7,000  Level Memphis Center
04:24PM 35.5025 -93.7378 52° Northeast 180 207 7,000  Level Memphis Center
04:25PM 35.5342 -93.6906 51° Northeast 180 207 7,000  Level Memphis Center
04:27PM 35.5644 -93.6414 53° Northeast 179 206 7,000  Level Memphis Center
04:28PM 35.5958 -93.5933 51° Northeast 180 207 7,000  Level Memphis Center
04:29PM 35.6261 -93.5456 52° Northeast 179 206 7,000  Level Memphis Center
04:30PM 35.6575 -93.4972 51° Northeast 179 206 7,000  Level Memphis Center
04:31PM 35.6950 -93.4381 52° Northeast 181 208 7,000  Level Memphis Center
04:32PM 35.7269 -93.3883 52° Northeast 183 211 7,000  Level Memphis Center
04:33PM 35.7583 -93.3394 52° Northeast 182 209 7,000  Level Memphis Center
04:34PM 35.7900 -93.2897 52° Northeast 183 211 7,000  Level Memphis Center
04:35PM 35.8228 -93.2400 51° Northeast 185 213 7,000  Level Memphis Center
04:36PM 35.8536 -93.1900 53° Northeast 185 213 7,000  Level Memphis Center
04:37PM 35.8914 -93.1289 53° Northeast 185 213 7,000  Level Memphis Center
04:38PM 35.9239 -93.0781 52° Northeast 186 214 7,000  Level Memphis Center
04:39PM 35.9553 -93.0292 52° Northeast 185 213 7,000  Level Memphis Center
04:40PM 35.9869 -92.9803 51° Northeast 184 212 7,000  Level Memphis Center
04:41PM 36.0175 -92.9308 53° Northeast 182 209 7,000  Level Memphis Center
04:42PM 36.0481 -92.8811 53° Northeast 182 209 7,000  Level Memphis Center
04:43PM 36.0786 -92.8333 52° Northeast 180 207 7,000  Level Memphis Center
04:44PM 36.1153 -92.7747 52° Northeast 179 206 7,000  Level Memphis Center
04:45PM 36.1469 -92.7242 52° Northeast 182 209 7,000  Level Memphis Center
04:46PM 36.1783 -92.6742 52° Northeast 183 211 7,000  Level Memphis Center
04:47PM 36.2081 -92.6242 54° Northeast 182 209 7,000  Level Memphis Center
04:48PM 36.2397 -92.5747 52° Northeast 182 209 7,000  Level Memphis Center
04:49PM 36.2714 -92.5250 52° Northeast 183 211 7,000  Level Memphis Center
04:50PM 36.3086 -92.4650 52° Northeast 183 211 7,000  Level Memphis Center
04:51PM 36.3400 -92.4156 52° Northeast 183 211 7,000  Level Memphis Center
04:52PM 36.3711 -92.3636 53° Northeast 186 214 7,000  Level Memphis Center
04:53PM 36.4033 -92.3142 51° Northeast 185 213 7,000  Level Memphis Center
04:54PM 36.4339 -92.2614 54° Northeast 187 215 7,000  Level Memphis Center
04:55PM 36.4653 -92.2108 52° Northeast 186 214 7,000  Level Memphis Center
04:57PM 36.4983 -92.1589 52° Northeast 185 213 7,000  Level Memphis Center
04:58PM 36.5347 -92.0992 53° Northeast 182 209 7,000  Level Memphis Center
04:59PM 36.5656 -92.0489 53° Northeast 182 209 7,100  Climbing Memphis Center
05:00PM 36.5967 -91.9994 52° Northeast 182 209 7,000 -60 Descending Memphis Center
05:01PM 36.6269 -91.9492 53° Northeast 182 209 7,000 -60 Level Memphis Center
05:01PM 36.6522 -91.9111 50° Northeast 181 208 6,900 -60 Descending Kansas City Center
05:02PM 36.6822 -91.8606 53° Northeast 181 208 6,900  Level Kansas City Center
05:04PM 36.7131 -91.8094 53° Northeast 182 209 6,900  Level Kansas City Center
05:05PM 36.7453 -91.7594 51° Northeast 183 211 7,000  Climbing Kansas City Center
05:06PM 36.7819 -91.7006 52° Northeast 182 209 6,900 -60 Descending Kansas City Center
05:07PM 36.8108 -91.6475 56° Northeast 182 209 6,900  Level Kansas City Center
05:08PM 36.8425 -91.5986 51° Northeast 183 211 6,900  Level Kansas City Center
05:09PM 36.8758 -91.5467 51° Northeast 185 213 7,000  Climbing Kansas City Center
05:10PM 36.9075 -91.4992 50° Northeast 181 208 6,900 -60 Descending Kansas City Center
05:11PM 36.9397 -91.4472 52° Northeast 185 213 6,900  Level Kansas City Center
05:12PM 36.9761 -91.3892 52° Northeast 179 206 6,900  Level Kansas City Center
05:13PM 37.0086 -91.3386 51° Northeast 182 209 7,000  Climbing Kansas City Center
05:14PM 37.0397 -91.2875 53° Northeast 184 212 7,000  Level Kansas City Center
05:15PM 37.0700 -91.2361 54° Northeast 183 211 7,000  Level Kansas City Center
05:16PM 37.1000 -91.1836 54° Northeast 184 212 7,000  Level Kansas City Center
05:17PM 37.1319 -91.1306 53° Northeast 186 214 7,000  Level Kansas City Center
05:18PM 37.1628 -91.0778 54° Northeast 187 215 7,000  Level Kansas City Center
05:19PM 37.1989 -91.0142 55° Northeast 187 215 7,000  Level Kansas City Center
05:20PM 37.2306 -90.9611 53° Northeast 187 215 7,000  Level Kansas City Center
05:21PM 37.2622 -90.9078 53° Northeast 188 216 7,000  Level Kansas City Center
05:22PM 37.2936 -90.8547 53° Northeast 189 217 7,000  Level Kansas City Center
05:23PM 37.3250 -90.8011 54° Northeast 190 219 7,000  Level Kansas City Center
05:24PM 37.3611 -90.7414 53° Northeast 190 219 7,000  Level Kansas City Center
05:25PM 37.3919 -90.6872 54° Northeast 192 221 7,000  Level Kansas City Center
05:26PM 37.4242 -90.6344 52° Northeast 191 220 7,000  Level Kansas City Center
05:27PM 37.4553 -90.5803 54° Northeast 192 221 7,000  Level Kansas City Center
05:28PM 37.4875 -90.5258 53° Northeast 192 221 7,000  Level Kansas City Center
05:29PM 37.5261 -90.4583 54° Northeast 197 227 7,000  Level Kansas City Center
05:30PM 37.5583 -90.4033 54° Northeast 197 227 7,100  Climbing Kansas City Center
05:31PM 37.5900 -90.3483 54° Northeast 195 224 7,100  Level Kansas City Center
05:33PM 37.6217 -90.2947 53° Northeast 194 223 7,100  Level Kansas City Center
05:34PM 37.6531 -90.2392 54° Northeast 194 223 7,100  Level Kansas City Center
05:35PM 37.6853 -90.1853 53° Northeast 193 222 7,100  Level Kansas City Center
05:36PM 37.7239 -90.1178 54° Northeast 196 226 7,100  Level Kansas City Center
05:37PM 37.7550 -90.0636 54° Northeast 195 224 7,100  Level Kansas City Center
05:38PM 37.7861 -90.0097 54° Northeast 193 222 7,100  Level Kansas City Center
05:39PM 37.8181 -89.9553 53° Northeast 192 221 7,100  Level Kansas City Center
05:40PM 37.8550 -89.8906 54° Northeast 196 226 7,100  Level Kansas City Center
05:41PM 37.8881 -89.8308 55° Northeast 195 224 7,100  Level Kansas City Center
05:42PM 37.9197 -89.7753 54° Northeast 194 223 7,100  Level Kansas City Center
05:43PM 37.9522 -89.7197 53° Northeast 196 226 7,100  Level Kansas City Center
05:44PM 37.9861 -89.6600 54° Northeast 195 224 7,100  Level Kansas City Center
05:45PM 38.0172 -89.6050 54° Northeast 195 224 7,100  Level Kansas City Center
05:46PM 38.0511 -89.5456 54° Northeast 194 223 7,100  Level Kansas City Center
05:47PM 38.0825 -89.4906 54° Northeast 194 223 7,100 -60 Level Kansas City Center
05:48PM 38.1139 -89.4328 55° Northeast 195 224 7,000 -60 Descending Kansas City Center
05:49PM 38.1461 -89.3775 53° Northeast 195 224 7,000  Level Kansas City Center
05:50PM 38.1772 -89.3217 55° Northeast 194 223 7,000  Level Kansas City Center
05:51PM 38.2092 -89.2650 54° Northeast 197 227 7,000  Level Kansas City Center
05:52PM 38.2419 -89.2069 54° Northeast 200 230 7,000  Level Kansas City Center
05:53PM 38.2800 -89.1400 54° Northeast 197 227 7,000  Level Kansas City Center
05:54PM 38.3122 -89.0814 55° Northeast 200 230 7,000  Level Kansas City Center
05:55PM 38.3444 -89.0236 55° Northeast 201 231 7,000  Level Kansas City Center
05:56PM 38.3792 -88.9619 54° Northeast 199 229 7,000  Level Kansas City Center
05:57PM 38.4139 -88.9000 54° Northeast 199 229 7,000  Level Kansas City Center
05:58PM 38.4453 -88.8422 55° Northeast 199 229 7,000  Level Kansas City Center
05:59PM 38.4792 -88.7803 55° Northeast 198 228 7,000  Level Kansas City Center
06:00PM 38.5125 -88.7225 54° Northeast 201 231 7,000  Level Kansas City Center
06:01PM 38.5478 -88.6603 54° Northeast 202 232 7,100  Climbing Kansas City Center
06:02PM 38.5758 -88.6089 55° Northeast 200 230 7,100  Level Kansas City Center
06:03PM 38.6069 -88.5508 56° Northeast 198 228 7,100  Level Kansas City Center
06:05PM 38.6397 -88.4911 55° Northeast 201 231 7,100  Level Kansas City Center
06:06PM 38.6794 -88.4200 54° Northeast 204 235 7,100  Level Kansas City Center
06:07PM 38.7125 -88.3614 54° Northeast 202 232 7,100  Level Kansas City Center
06:08PM 38.7444 -88.3019 55° Northeast 202 232 7,100  Level Kansas City Center
06:09PM 38.7758 -88.2431 56° Northeast 200 230 7,100  Level Kansas City Center
06:10PM 38.8086 -88.1836 55° Northeast 201 231 7,100  Level Kansas City Center
06:11PM 38.8408 -88.1253 55° Northeast 201 231 7,100  Level Kansas City Center
06:12PM 38.8653 -88.0792 56° Northeast 200 230 7,100  Level Indianapolis Center
06:13PM 38.8972 -88.0194 55° Northeast 201 231 7,100  Level Indianapolis Center
06:14PM 38.9289 -87.9606 55° Northeast 200 230 7,100  Level Indianapolis Center
06:15PM 38.9619 -87.9019 54° Northeast 201 231 7,100  Level Indianapolis Center
06:16PM 38.9994 -87.8300 56° Northeast 201 231 7,100  Level Indianapolis Center
06:17PM 39.0317 -87.7697 55° Northeast 203 234 7,100  Level Indianapolis Center
06:18PM 39.0642 -87.7108 55° Northeast 202 232 7,100  Level Indianapolis Center
06:19PM 39.0967 -87.6494 56° Northeast 205 236 7,100  Level Indianapolis Center
06:20PM 39.1278 -87.5894 56° Northeast 203 234 7,100  Level Indianapolis Center
06:21PM 39.1597 -87.5303 55° Northeast 202 232 7,100  Level Indianapolis Center
06:22PM 39.1922 -87.4711 55° Northeast 203 234 7,100  Level Indianapolis Center
06:23PM 39.2297 -87.4000 56° Northeast 201 231 7,100  Level Indianapolis Center
06:24PM 39.2611 -87.3392 56° Northeast 204 235 7,100  Level Indianapolis Center
06:25PM 39.2942 -87.2800 54° Northeast 204 235 7,100  Level Indianapolis Center
06:26PM 39.3256 -87.2197 56° Northeast 203 234 7,100  Level Indianapolis Center
06:27PM 39.3572 -87.1597 56° Northeast 203 234 7,100  Level Indianapolis Center
06:28PM 39.3883 -87.0997 56° Northeast 202 232 7,100  Level Indianapolis Center
06:29PM 39.4256 -87.0281 56° Northeast 201 231 7,100  Level Indianapolis Center
06:30PM 39.4569 -86.9700 55° Northeast 199 229 7,100 -60 Level Indianapolis Center
06:31PM 39.4883 -86.9100 56° Northeast 201 231 7,000 -60 Descending Indianapolis Center
06:32PM 39.5194 -86.8497 56° Northeast 201 231 7,000  Level Indianapolis Center
06:33PM 39.5503 -86.7903 56° Northeast 201 231 7,000 -240 Level Indianapolis Center
06:34PM 39.5892 -86.7169 55° Northeast 205 236 6,600 -420 Descending Indianapolis Center
06:35PM 39.6272 -86.6578 50° Northeast 213 245 6,200 -420 Descending Indianapolis Center
06:36PM 39.6681 -86.6031 46° Northeast 212 244 5,800 -360 Descending Indianapolis Center
06:37PM 39.7097 -86.5525 43° Northeast 207 238 5,500 -420 Descending Indianapolis Center
06:38PM 39.7497 -86.5003 45° Northeast 204 235 5,000 -540 Descending Indianapolis Center
06:39PM 39.7889 -86.4531 43° Northeast 198 228 4,400 -480 Descending Indianapolis Center
06:40PM 39.8297 -86.4042 43° Northeast 197 227 4,000 -360 Descending Indianapolis Center
06:41PM 39.8703 -86.3397 51° Northeast 199 229 3,700 -420 Descending Indianapolis Center
06:43PM 39.8864 -86.2678 74° East 203 234 3,200 -420 Descending Indianapolis Center
06:44PM 39.9000 -86.2036 75° East 204 235 2,900 -300 Descending Indianapolis Center